Time;durP1;ratioP1;P1;durP2;ratioP2;P2;SDS_P1;SDS_P2;PMS_P1;PMS_P2;Temp;Humidity;BMP_temperature;BMP_pressure;BME280_temperature;BME280_humidity;BME280_pressure;Samples;Min_cycle;Max_cycle;Signal;HPM_P1;HPM_P2
2022/09/01 00:03:11;;;;;;;2.00;1.70;;;;;;;14.37;74.19;100363.91;214158;1276;142592;-65
2022/09/01 00:08:13;;;;;;;2.20;1.90;;;;;;;14.38;74.22;100368.11;215683;1276;141191;-64
2022/09/01 00:13:20;;;;;;;4.90;1.60;;;;;;;14.35;74.24;100369.20;215526;1276;140381;-64
2022/09/01 00:18:22;;;;;;;2.80;1.80;;;;;;;14.30;74.16;100374.04;213573;1277;141218;-63
2022/09/01 00:23:25;;;;;;;2.10;1.50;;;;;;;14.32;74.24;100377.73;214606;1276;141846;-63
2022/09/01 00:28:28;;;;;;;2.00;1.80;;;;;;;14.32;74.16;100371.63;214432;1276;142004;-62
2022/09/01 00:33:35;;;;;;;1.50;1.50;;;;;;;14.29;74.22;100375.96;214318;1276;140195;-64
2022/09/01 00:38:39;;;;;;;1.20;1.10;;;;;;;14.30;74.26;100373.30;213081;1276;139797;-64
2022/09/01 00:43:58;;;;;;;2.40;1.90;;;;;;;14.35;73.92;100374.61;214043;1276;152646;-64
2022/09/01 00:49:08;;;;;;;3.00;1.90;;;;;;;14.34;73.74;100375.67;213649;1276;139637;-65
2022/09/01 00:54:15;;;;;;;2.30;2.10;;;;;;;14.28;73.68;100375.85;213524;1276;140591;-63
2022/09/01 00:59:21;;;;;;;1.60;1.30;;;;;;;14.26;73.82;100375.27;213203;1276;139840;-66
2022/09/01 01:04:24;;;;;;;1.80;1.60;;;;;;;14.25;73.75;100374.61;212821;1276;140586;-66
2022/09/01 01:09:35;;;;;;;2.10;2.00;;;;;;;14.21;73.55;100371.48;213677;1277;141759;-65
2022/09/01 01:14:38;;;;;;;2.40;1.10;;;;;;;14.18;73.50;100368.46;213231;1276;140053;-65
2022/09/01 01:25:21;;;;;;;1.70;1.60;;;;;;;14.10;73.59;100368.61;213890;1276;140821;-65
2022/09/01 01:30:32;;;;;;;2.00;1.70;;;;;;;14.05;73.60;100369.02;213757;1276;139973;-67
2022/09/01 01:35:36;;;;;;;2.50;1.80;;;;;;;13.99;73.64;100372.08;213943;1276;140811;-67
2022/09/01 01:40:40;;;;;;;2.90;1.80;;;;;;;13.92;73.59;100372.95;213686;1276;141496;-66
2022/09/01 01:45:43;;;;;;;1.30;1.30;;;;;;;13.91;73.83;100365.34;213089;1276;141212;-66
2022/09/01 01:50:48;;;;;;;1.90;1.60;;;;;;;13.86;73.84;100359.13;213018;1277;140026;-65
2022/09/01 01:55:51;;;;;;;1.90;1.80;;;;;;;13.81;74.36;100357.17;214704;1277;140816;-66
2022/09/01 02:00:56;;;;;;;2.00;1.30;;;;;;;13.79;74.11;100353.34;215555;1276;139814;-66
2022/09/01 02:06:06;;;;;;;1.50;1.40;;;;;;;13.79;74.02;100353.16;215798;1276;140796;-66
2022/09/01 02:11:12;;;;;;;1.40;1.30;;;;;;;13.73;73.98;100352.01;215772;1275;140295;-65
2022/09/01 02:16:15;;;;;;;1.90;1.80;;;;;;;13.67;73.98;100346.38;214950;1276;139860;-65
2022/09/01 02:21:22;;;;;;;0.90;0.90;;;;;;;13.63;73.94;100348.37;214407;1276;139705;-65
2022/09/01 02:26:33;;;;;;;1.30;1.20;;;;;;;13.59;74.01;100349.85;213447;1276;142135;-66
2022/09/01 02:31:39;;;;;;;1.50;1.40;;;;;;;13.55;74.22;100351.13;214060;1276;141620;-67
2022/09/01 02:36:48;;;;;;;2.50;1.40;;;;;;;13.48;73.96;100352.43;214067;1278;142052;-65
2022/09/01 02:41:52;;;;;;;2.10;1.70;;;;;;;13.37;73.93;100351.97;214273;1276;141280;-66
2022/09/01 02:46:57;;;;;;;1.60;1.50;;;;;;;13.28;73.75;100357.91;213830;1276;140665;-65
2022/09/01 02:52:03;;;;;;;4.60;1.50;;;;;;;13.13;73.49;100367.19;213305;1276;140544;-65
2022/09/01 02:57:07;;;;;;;5.30;1.70;;;;;;;12.94;73.45;100366.75;213134;1276;139701;-65
2022/09/01 03:02:13;;;;;;;1.50;1.40;;;;;;;12.79;73.64;100368.60;213007;1276;140093;-66
2022/09/01 03:07:17;;;;;;;3.40;1.70;;;;;;;12.72;73.97;100366.59;213097;1276;141292;-65
2022/09/01 03:12:20;;;;;;;3.10;1.10;;;;;;;12.60;74.07;100362.95;213853;1276;140892;-64
2022/09/01 03:17:23;;;;;;;1.30;1.20;;;;;;;12.41;73.44;100361.19;214042;1276;162396;-65
2022/09/01 03:22:28;;;;;;;6.10;1.10;;;;;;;12.19;73.56;100369.47;214717;1276;139349;-64
2022/09/01 03:27:32;;;;;;;2.00;1.90;;;;;;;12.03;73.35;100365.47;215091;1276;140854;-64
2022/09/01 03:32:35;;;;;;;2.60;1.70;;;;;;;11.81;73.50;100372.36;214112;1276;140011;-66
2022/09/01 03:37:38;;;;;;;1.90;1.80;;;;;;;11.71;73.64;100369.84;213557;1276;139928;-65
2022/09/01 03:42:42;;;;;;;1.40;1.30;;;;;;;11.64;73.93;100367.27;214484;1276;140307;-64
2022/09/01 03:47:47;;;;;;;1.20;1.10;;;;;;;11.51;73.77;100363.13;213837;1276;140570;-64
2022/09/01 03:52:53;;;;;;;1.40;1.20;;;;;;;11.41;73.83;100363.09;213236;1276;139611;-64
2022/09/01 03:58:05;;;;;;;3.30;1.80;;;;;;;11.27;74.08;100365.87;215729;1276;140816;-65
2022/09/01 04:03:13;;;;;;;1.30;1.20;;;;;;;11.17;74.02;100375.29;215560;1276;139776;-65
2022/09/01 04:08:18;;;;;;;2.00;1.70;;;;;;;11.14;74.17;100373.35;215113;1276;141239;-67
2022/09/01 04:13:25;;;;;;;1.60;1.20;;;;;;;11.10;74.09;100373.92;215619;1276;140518;-66
2022/09/01 04:18:29;;;;;;;1.40;1.30;;;;;;;10.95;73.88;100378.54;214622;1276;139750;-65
2022/09/01 04:23:33;;;;;;;2.50;1.10;;;;;;;10.80;74.32;100374.45;214688;1276;140703;-65
2022/09/01 04:28:40;;;;;;;1.70;1.10;;;;;;;10.82;74.57;100374.73;213600;1276;141048;-65
2022/09/01 04:33:48;;;;;;;2.70;2.50;;;;;;;10.88;74.97;100376.95;213153;1276;141783;-64
2022/09/01 04:39:07;;;;;;;1.80;1.70;;;;;;;10.91;74.95;100375.55;213905;1276;153173;-65
2022/09/01 04:44:15;;;;;;;4.80;1.70;;;;;;;10.91;75.12;100380.63;214121;1276;142856;-65
2022/09/01 04:49:20;;;;;;;3.90;2.30;;;;;;;10.99;75.39;100381.70;213182;1276;144326;-64
2022/09/01 04:54:24;;;;;;;2.50;1.80;;;;;;;11.14;76.18;100387.89;213435;1276;140923;-65
2022/09/01 04:59:28;;;;;;;2.00;1.90;;;;;;;11.25;76.15;100388.23;212054;1274;1845287;-64
2022/09/01 05:04:32;;;;;;;6.10;2.90;;;;;;;11.36;76.45;100387.10;214000;1275;141416;-68
2022/09/01 05:09:36;;;;;;;4.40;2.20;;;;;;;11.48;76.57;100384.02;213002;1277;141611;-68
2022/09/01 05:14:42;;;;;;;3.40;3.10;;;;;;;11.62;76.72;100381.63;213063;1277;223507;-67
2022/09/01 05:19:49;;;;;;;3.30;2.70;;;;;;;11.75;76.79;100384.55;213560;1276;141384;-66
2022/09/01 05:24:52;;;;;;;3.20;2.60;;;;;;;11.87;76.81;100382.23;212993;1276;142332;-67
2022/09/01 05:30:00;;;;;;;3.70;1.60;;;;;;;12.03;77.24;100386.54;213396;1276;140505;-68
2022/09/01 05:35:07;;;;;;;2.00;1.70;;;;;;;12.17;77.36;100385.04;214797;1277;140651;-65
2022/09/01 05:40:14;;;;;;;5.60;2.30;;;;;;;12.30;77.65;100383.79;215403;1276;140149;-65
2022/09/01 05:45:22;;;;;;;3.30;3.00;;;;;;;12.48;77.28;100379.48;215170;1276;140629;-65
2022/09/01 05:50:27;;;;;;;;;;;;;;;12.70;77.15;100381.53;214900;1276;142302;-65
2022/09/01 05:55:34;;;;;;;2.20;1.90;;;;;;;12.82;76.87;100383.95;216176;1274;126658;-65
2022/09/01 06:00:37;;;;;;;1.80;1.40;;;;;;;12.96;76.68;100388.70;215224;1277;139897;-66
2022/09/01 06:05:41;;;;;;;5.40;2.30;;;;;;;13.06;76.11;100387.74;213709;1277;141963;-65
2022/09/01 06:10:44;;;;;;;3.30;2.20;;;;;;;13.19;76.37;100384.38;215866;1276;140678;-66
2022/09/01 06:15:55;;;;;;;2.80;1.90;;;;;;;13.29;76.14;100385.05;214657;1276;140781;-65
2022/09/01 06:21:02;;;;;;;6.80;1.40;;;;;;;13.42;75.82;100384.20;214266;1276;141076;-64
2022/09/01 06:26:08;;;;;;;5.20;2.10;;;;;;;13.56;75.84;100384.77;214800;1276;139983;-66
2022/09/01 06:31:12;;;;;;;1.70;1.20;;;;;;;13.67;75.60;100392.23;214516;1276;140752;-67
2022/09/01 06:36:16;;;;;;;1.20;1.10;;;;;;;13.76;75.49;100395.61;214132;1276;139770;-65
2022/09/01 06:41:22;;;;;;;3.30;1.30;;;;;;;13.93;74.87;100404.81;213195;1276;140999;-68
2022/09/01 06:46:28;;;;;;;2.90;1.70;;;;;;;14.16;74.90;100401.75;213645;1276;140027;-66
2022/09/01 06:51:35;;;;;;;3.60;1.60;;;;;;;14.48;74.41;100405.14;213006;1277;140148;-64
2022/09/01 06:56:39;;;;;;;1.90;1.50;;;;;;;14.88;74.26;100407.00;213324;1274;141162;-64
2022/09/01 07:01:47;;;;;;;2.20;1.70;;;;;;;15.14;73.71;100412.36;213978;1276;140646;-66
2022/09/01 07:06:52;;;;;;;1.20;1.20;;;;;;;15.34;73.61;100418.09;213517;1277;139986;-65
2022/09/01 07:12:18;;;;;;;2.40;1.40;;;;;;;15.58;73.04;100417.92;213700;1277;141869;-65
2022/09/01 07:17:51;;;;;;;5.80;1.60;;;;;;;16.45;72.17;100417.08;212979;1277;139414;-66
2022/09/01 07:22:56;;;;;;;2.40;1.50;;;;;;;17.87;71.03;100415.38;214141;1277;140071;-67
2022/09/01 07:28:28;;;;;;;8.00;1.40;;;;;;;18.99;70.18;100413.88;214342;1277;139644;-67
2022/09/01 07:33:40;;;;;;;1.40;1.20;;;;;;;19.81;69.20;100421.39;213033;1278;141034;-66
2022/09/01 07:38:53;;;;;;;1.40;0.90;;;;;;;20.32;67.23;100417.29;213909;1277;139880;-65
2022/09/01 07:44:16;;;;;;;4.90;1.10;;;;;;;20.70;65.81;100423.60;214162;1277;140253;-65
2022/09/01 07:49:19;;;;;;;0.70;0.70;;;;;;;21.00;64.65;100417.55;213827;1277;139816;-65
2022/09/01 07:54:43;;;;;;;1.30;0.50;;;;;;;21.32;63.59;100421.08;213435;1277;139761;-65
2022/09/01 07:59:50;;;;;;;2.10;0.50;;;;;;;21.44;62.03;100418.59;215767;1277;139207;-66
2022/09/01 08:04:55;;;;;;;1.80;0.70;;;;;;;20.94;60.75;100420.04;215287;1278;141554;-66
2022/09/01 08:10:00;;;;;;;1.90;0.70;;;;;;;21.08;60.82;100418.22;215101;1277;139795;-65
2022/09/01 08:15:07;;;;;;;1.80;0.60;;;;;;;20.96;59.81;100423.08;214963;1276;139495;-66
2022/09/01 08:20:34;;;;;;;0.70;0.40;;;;;;;20.70;59.71;100421.81;214794;1275;139415;-66
2022/09/01 08:25:37;;;;;;;;;;;;;;;21.05;59.70;100416.48;213668;1277;140868;-65
2022/09/01 08:30:42;;;;;;;0.90;0.80;;;;;;;21.00;58.56;100418.74;214476;1277;127996;-66
2022/09/01 08:35:57;;;;;;;1.50;0.40;;;;;;;20.70;57.94;100422.71;214686;1277;140841;-65
2022/09/01 08:41:02;;;;;;;0.60;0.60;;;;;;;20.20;57.43;100424.45;213596;1277;141418;-66
2022/09/01 08:46:36;;;;;;;0.40;0.30;;;;;;;20.27;57.71;100419.36;214106;1277;139717;-66
2022/09/01 08:52:08;;;;;;;2.00;0.70;;;;;;;20.33;58.25;100421.34;212707;1277;140968;-66
2022/09/01 08:57:22;;;;;;;5.30;0.60;;;;;;;20.76;58.06;100419.25;213751;1277;139807;-66
2022/09/01 09:02:59;;;;;;;0.30;0.30;;;;;;;20.96;56.74;100421.72;214060;1277;140352;-66
2022/09/01 09:08:23;;;;;;;0.50;0.30;;;;;;;21.02;56.36;100416.02;213073;1277;140839;-66
2022/09/01 09:13:56;;;;;;;1.60;0.50;;;;;;;21.23;55.75;100420.35;213341;1277;140393;-66
2022/09/01 09:19:09;;;;;;;1.70;0.60;;;;;;;20.89;54.93;100413.92;214331;1277;139856;-68
2022/09/01 09:24:46;;;;;;;1.70;0.50;;;;;;;21.15;55.05;100411.71;213486;1277;139958;-64
2022/09/01 09:29:52;;;;;;;1.40;0.50;;;;;;;21.05;54.14;100413.61;213906;1277;140170;-67
2022/09/01 09:34:55;;;;;;;0.40;0.40;;;;;;;21.57;53.53;100417.13;213813;1276;139649;-67
2022/09/01 09:40:18;;;;;;;0.20;0.20;;;;;;;21.84;53.24;100411.98;215295;1277;140233;-66
2022/09/01 09:45:28;;;;;;;0.90;0.80;;;;;;;22.07;52.55;100412.73;215355;1277;140746;-64
2022/09/01 09:50:39;;;;;;;0.80;0.40;;;;;;;22.26;52.01;100405.36;215553;1276;142434;-62
2022/09/01 09:55:56;;;;;;;1.40;0.60;;;;;;;22.56;51.81;100402.97;213061;1277;141495;-64
2022/09/01 10:01:05;;;;;;;0.30;0.20;;;;;;;22.19;50.95;100407.04;215451;1276;139968;-65
2022/09/01 10:06:29;;;;;;;1.10;0.60;;;;;;;21.87;50.56;100406.80;215487;1277;140149;-65
2022/09/01 10:11:37;;;;;;;0.40;0.40;;;;;;;21.42;49.99;100405.89;215547;1276;140834;-65
2022/09/01 10:16:46;;;;;;;0.30;0.30;;;;;;;21.59;50.26;100401.20;213839;1276;139432;-64
2022/09/01 10:21:52;;;;;;;0.60;0.60;;;;;;;22.01;50.21;100396.67;214961;1276;139051;-66
2022/09/01 10:26:59;;;;;;;0.50;0.50;;;;;;;22.70;50.42;100388.87;214396;1276;140543;-67
2022/09/01 10:32:07;;;;;;;0.20;0.20;;;;;;;22.98;49.34;100391.15;213937;1276;141247;-65
2022/09/01 10:37:31;;;;;;;0.40;0.40;;;;;;;22.41;47.96;100396.10;213839;1276;139746;-64
2022/09/01 10:42:36;;;;;;;0.60;0.60;;;;;;;21.93;48.34;100400.30;214001;1276;139887;-66
2022/09/01 10:47:39;;;;;;;0.50;0.40;;;;;;;21.63;48.56;100403.60;213245;1276;140359;-65
2022/09/01 10:52:42;;;;;;;0.70;0.60;;;;;;;21.51;48.50;100399.89;213408;1277;139708;-68
2022/09/01 10:58:05;;;;;;;0.30;0.30;;;;;;;21.54;48.69;100394.17;213412;1277;139822;-66
2022/09/01 11:03:31;;;;;;;3.30;0.50;;;;;;;21.52;48.73;100393.27;212911;1277;140352;-64
2022/09/01 11:08:59;;;;;;;0.30;0.30;;;;;;;21.37;48.34;100399.08;213043;1277;140404;-63
2022/09/01 11:14:15;;;;;;;5.40;0.60;;;;;;;21.35;48.64;100399.73;213004;1276;140093;-64
2022/09/01 11:19:34;;;;;;;0.20;0.20;;;;;;;21.22;48.40;100401.60;214288;1277;139727;-64
2022/09/01 11:24:45;;;;;;;0.90;0.50;;;;;;;20.99;48.46;100400.22;213863;1276;140134;-66
2022/09/01 11:30:08;;;;;;;0.60;0.30;;;;;;;20.81;49.16;100401.54;212861;1277;139597;-65
2022/09/01 11:35:23;;;;;;;0.40;0.40;;;;;;;20.65;48.95;100402.30;213859;1276;140159;-65
2022/09/01 11:40:29;;;;;;;0.60;0.50;;;;;;;20.51;48.83;100400.42;213977;1276;140249;-65
2022/09/01 11:45:49;;;;;;;4.30;1.50;;;;;;;20.49;48.86;100398.16;214915;1277;139764;-64
2022/09/01 11:51:01;;;;;;;6.20;2.90;;;;;;;21.01;49.35;100389.20;214484;1277;140237;-65
2022/09/01 11:56:24;;;;;;;0.90;0.40;;;;;;;21.48;49.10;100392.52;212738;1278;139469;-64
2022/09/01 12:01:29;;;;;;;0.90;0.80;;;;;;;21.97;48.78;100383.53;215037;1276;139973;-65
2022/09/01 12:06:31;;;;;;;0.80;0.40;;;;;;;22.17;48.20;100378.41;215144;1277;140210;-65
2022/09/01 12:11:35;;;;;;;1.40;1.10;;;;;;;21.99;47.66;100385.46;214814;1277;140710;-65
2022/09/01 12:16:40;;;;;;;1.40;0.60;;;;;;;22.11;48.01;100379.27;212830;1277;139872;-64
2022/09/01 12:21:55;;;;;;;;;;;;;;;22.15;47.94;100377.08;213507;1277;140307;-65
2022/09/01 12:26:57;;;;;;;53.00;15.10;;;;;;;22.34;47.76;100372.53;214171;1277;126034;-65
2022/09/01 12:32:00;;;;;;;1.30;0.80;;;;;;;22.35;47.36;100368.55;212699;1277;139866;-65
2022/09/01 12:37:10;;;;;;;0.70;0.60;;;;;;;22.16;47.43;100365.23;212679;1277;140925;-65
2022/09/01 12:42:18;;;;;;;0.60;0.60;;;;;;;21.94;47.42;100363.97;214279;1277;139467;-66
2022/09/01 12:47:33;;;;;;;0.70;0.70;;;;;;;21.52;47.57;100365.23;212892;1278;139626;-65
2022/09/01 12:52:44;;;;;;;10.90;3.50;;;;;;;21.15;48.19;100363.66;213023;1276;140777;-65
2022/09/01 12:58:08;;;;;;;1.70;0.60;;;;;;;20.80;48.67;100357.98;214264;1277;140680;-64
2022/09/01 13:03:14;;;;;;;1.60;0.70;;;;;;;20.91;49.19;100357.48;212965;1277;140264;-64
2022/09/01 13:08:20;;;;;;;0.40;0.40;;;;;;;21.04;49.03;100351.70;213368;1277;142037;-65
2022/09/01 13:13:24;;;;;;;0.80;0.60;;;;;;;21.41;48.85;100348.66;213396;1276;141316;-65
2022/09/01 13:18:28;;;;;;;1.20;0.60;;;;;;;21.76;48.39;100348.17;214042;1276;141260;-64
2022/09/01 13:23:31;;;;;;;1.90;0.50;;;;;;;22.08;47.41;100349.71;214375;1277;140850;-65
2022/09/01 13:28:34;;;;;;;1.20;0.80;;;;;;;22.29;46.85;100339.71;214062;1276;140571;-65
2022/09/01 13:33:42;;;;;;;2.60;0.40;;;;;;;22.28;47.24;100332.06;213935;1276;151745;-64
2022/09/01 13:39:04;;;;;;;0.30;0.30;;;;;;;22.02;47.18;100337.02;213012;1276;140511;-65
2022/09/01 13:44:10;;;;;;;3.70;0.90;;;;;;;21.85;46.96;100335.73;215421;1277;141325;-66
2022/09/01 13:49:13;;;;;;;0.30;0.30;;;;;;;21.44;47.29;100338.05;215230;1277;220375;-66
2022/09/01 13:54:35;;;;;;;0.70;0.70;;;;;;;21.09;47.68;100350.55;214545;1277;140388;-65
2022/09/01 13:59:37;;;;;;;0.50;0.40;;;;;;;20.64;47.59;100352.12;214493;1276;141415;-64
2022/09/01 14:04:40;;;;;;;1.60;0.50;;;;;;;20.17;48.25;100355.77;213222;1276;140985;-68
2022/09/01 14:09:42;;;;;;;1.70;0.70;;;;;;;19.77;48.93;100361.63;215542;1276;140719;-69
2022/09/01 14:14:44;;;;;;;1.30;1.10;;;;;;;19.55;49.75;100363.45;214888;1276;141269;-65
2022/09/01 14:20:11;;;;;;;0.40;0.40;;;;;;;19.39;50.48;100363.70;214819;1276;140131;-65
2022/09/01 14:25:15;;;;;;;0.70;0.70;;;;;;;19.32;51.36;100358.22;212406;1277;140679;-65
2022/09/01 14:30:24;;;;;;;0.70;0.70;;;;;;;19.32;51.90;100363.08;214186;1276;140509;-65
2022/09/01 14:35:32;;;;;;;0.80;0.80;;;;;;;19.37;52.01;100359.11;213479;1277;139961;-65
2022/09/01 14:40:37;;;;;;;0.50;0.50;;;;;;;19.47;51.97;100357.79;213562;1276;139771;-65
2022/09/01 14:45:43;;;;;;;1.20;0.60;;;;;;;19.60;52.43;100347.95;213292;1277;139850;-64
2022/09/01 14:50:47;;;;;;;1.30;0.80;;;;;;;19.71;52.23;100345.72;213784;1276;139847;-64
2022/09/01 14:55:50;;;;;;;0.70;0.40;;;;;;;19.77;52.33;100343.95;212823;1276;140057;-65
2022/09/01 15:00:58;;;;;;;0.60;0.50;;;;;;;19.68;51.86;100346.32;213377;1276;139259;-66
2022/09/01 15:06:21;;;;;;;0.90;0.50;;;;;;;19.78;51.66;100344.10;212533;1276;151150;-65
2022/09/01 15:11:23;;;;;;;1.10;0.70;;;;;;;19.78;51.19;100341.45;212660;1277;140433;-64
2022/09/01 15:16:27;;;;;;;1.10;0.80;;;;;;;19.64;50.66;100340.34;214302;1277;140281;-65
2022/09/01 15:21:32;;;;;;;0.80;0.70;;;;;;;19.48;50.59;100343.02;213071;1277;139861;-65
2022/09/01 15:26:37;;;;;;;1.40;1.30;;;;;;;19.45;50.38;100342.86;214026;1277;140063;-66
2022/09/01 15:31:41;;;;;;;0.60;0.60;;;;;;;19.40;50.14;100343.42;214323;1276;139811;-67
2022/09/01 15:36:44;;;;;;;2.60;0.50;;;;;;;19.33;49.84;100340.64;215349;1276;140384;-65
2022/09/01 15:41:48;;;;;;;2.00;0.50;;;;;;;19.29;49.57;100333.52;214863;1276;139791;-65
2022/09/01 15:46:52;;;;;;;0.30;0.30;;;;;;;19.21;49.52;100332.39;214990;1276;140902;-66
2022/09/01 15:51:56;;;;;;;0.40;0.40;;;;;;;19.16;49.60;100330.46;215389;1276;140611;-65
2022/09/01 15:56:58;;;;;;;2.00;0.30;;;;;;;19.09;49.84;100326.05;215427;1277;140690;-65
2022/09/01 16:02:01;;;;;;;4.80;0.40;;;;;;;19.05;50.07;100321.79;215597;1277;139988;-65
2022/09/01 16:07:04;;;;;;;3.00;0.60;;;;;;;18.95;50.13;100319.84;214770;1277;140773;-65
2022/09/01 16:12:08;;;;;;;0.80;0.60;;;;;;;18.83;50.15;100317.50;214289;1276;141107;-65
2022/09/01 16:17:40;;;;;;;1.40;1.00;;;;;;;18.62;50.80;100317.65;213508;1276;141053;-65
2022/09/01 16:23:16;;;;;;;0.70;0.70;;;;;;;18.38;50.46;100325.72;212832;1276;141085;-67
2022/09/01 16:28:26;;;;;;;0.50;0.50;;;;;;;18.17;50.31;100323.95;213649;1276;140762;-64
2022/09/01 16:33:31;;;;;;;0.60;0.40;;;;;;;17.97;50.94;100329.67;212887;1276;140298;-65
2022/09/01 16:38:46;;;;;;;4.80;2.70;;;;;;;17.84;51.51;100326.41;213407;1276;151522;-63
2022/09/01 16:44:21;;;;;;;13.30;1.70;;;;;;;17.62;51.78;100327.19;212728;1277;140427;-64
2022/09/01 16:50:03;;;;;;;1.50;1.10;;;;;;;17.36;52.38;100336.11;212514;1277;141794;-62
2022/09/01 16:55:17;;;;;;;1.50;0.70;;;;;;;17.12;52.63;100340.33;214237;1277;141592;-63
2022/09/01 17:00:27;;;;;;;1.30;0.70;;;;;;;16.89;53.03;100340.54;211335;1277;2021505;-64
2022/09/01 17:05:46;;;;;;;1.70;1.20;;;;;;;16.70;53.33;100340.48;213982;1277;210234;-64
2022/09/01 17:11:10;;;;;;;1.00;0.90;;;;;;;16.52;53.68;100345.88;214089;1276;142388;-63
2022/09/01 17:16:23;;;;;;;2.00;0.90;;;;;;;16.35;54.20;100350.12;213006;1277;139412;-63
2022/09/01 17:21:52;;;;;;;4.90;1.00;;;;;;;16.17;55.10;100358.10;213860;1276;139956;-62
2022/09/01 17:27:06;;;;;;;2.30;1.20;;;;;;;15.94;55.92;100362.14;213765;1277;140077;-62
2022/09/01 17:32:20;;;;;;;2.00;1.00;;;;;;;15.72;56.56;100365.59;214737;1276;139693;-62
2022/09/01 17:37:55;;;;;;;1.30;0.80;;;;;;;15.49;57.28;100367.46;214305;1276;140896;-62
2022/09/01 17:43:24;;;;;;;2.70;1.00;;;;;;;15.27;57.77;100377.19;214307;1277;141146;-62
2022/09/01 17:48:39;;;;;;;1.10;1.00;;;;;;;15.06;58.17;100379.86;215267;1277;140755;-62
2022/09/01 17:54:00;;;;;;;3.60;1.50;;;;;;;14.81;58.64;100385.31;215288;1276;141654;-62
2022/09/01 17:59:21;;;;;;;2.40;1.10;;;;;;;14.63;59.40;100390.73;215520;1276;140950;-62
2022/09/01 18:05:06;;;;;;;2.50;1.30;;;;;;;14.53;60.28;100398.48;214186;1277;141084;-62
2022/09/01 18:10:13;;;;;;;1.90;1.30;;;;;;;14.45;60.77;100402.95;213942;1276;141318;-63
2022/09/01 18:15:18;;;;;;;;;;;;;;;14.33;61.59;100405.35;213114;1276;140747;-66
2022/09/01 18:20:42;;;;;;;2.70;1.00;;;;;;;14.16;62.46;100412.84;214126;1276;127107;-61
2022/09/01 18:25:54;;;;;;;1.60;1.20;;;;;;;14.06;63.26;100416.31;213489;1276;142299;-64
2022/09/01 18:30:59;;;;;;;10.30;0.90;;;;;;;14.00;63.74;100415.58;213048;1277;141660;-63
2022/09/01 18:36:20;;;;;;;1.50;1.00;;;;;;;14.00;64.08;100414.98;213218;1276;141365;-64
2022/09/01 18:41:47;;;;;;;1.00;1.00;;;;;;;13.95;64.90;100411.31;212865;1278;141980;-63
2022/09/01 18:47:00;;;;;;;2.50;1.30;;;;;;;13.90;65.28;100410.34;213153;1277;140373;-66
2022/09/01 18:52:24;;;;;;;1.00;0.80;;;;;;;13.84;65.85;100413.48;212840;1277;140920;-65
2022/09/01 18:57:35;;;;;;;5.30;0.90;;;;;;;13.80;66.28;100413.63;213384;1277;140122;-66
2022/09/01 19:02:55;;;;;;;1.80;1.10;;;;;;;13.89;66.78;100414.13;213069;1277;142698;-64
2022/09/01 19:08:20;;;;;;;1.70;0.80;;;;;;;13.94;67.24;100420.98;213979;1277;141118;-64
2022/09/01 19:13:35;;;;;;;1.60;1.20;;;;;;;13.97;67.54;100428.05;214669;1276;140352;-64
2022/09/01 19:19:13;;;;;;;2.70;1.60;;;;;;;13.92;67.65;100428.18;213599;1277;151167;-65
2022/09/01 19:24:26;;;;;;;1.00;0.90;;;;;;;13.93;67.94;100429.59;214923;1277;140883;-64
2022/09/01 19:29:43;;;;;;;1.50;1.20;;;;;;;14.02;68.15;100427.45;214774;1278;141171;-63
2022/09/01 19:34:59;;;;;;;1.70;1.40;;;;;;;14.09;68.19;100428.05;214589;1277;140245;-63
2022/09/01 19:40:03;;;;;;;1.30;1.20;;;;;;;14.16;68.00;100428.83;215089;1278;139826;-65
2022/09/01 19:45:21;;;;;;;3.10;1.20;;;;;;;14.24;67.93;100430.20;215506;1276;141035;-66
2022/09/01 19:50:51;;;;;;;5.80;1.60;;;;;;;14.18;67.74;100431.92;214822;1276;140674;-64
2022/09/01 19:56:12;;;;;;;3.50;1.30;;;;;;;14.06;67.74;100436.48;214245;1277;139891;-65
2022/09/01 20:01:21;;;;;;;1.50;1.10;;;;;;;13.99;67.95;100440.48;214439;1276;141436;-64
2022/09/01 20:06:34;;;;;;;2.70;1.20;;;;;;;13.95;68.40;100439.39;213711;1277;141431;-65
2022/09/01 20:11:43;;;;;;;4.50;1.20;;;;;;;13.95;68.86;100442.61;213574;1276;139630;-62
2022/09/01 20:16:50;;;;;;;1.20;0.90;;;;;;;13.91;69.24;100443.59;213726;1277;140017;-64
2022/09/01 20:21:52;;;;;;;3.00;1.40;;;;;;;13.87;69.82;100442.54;213180;1278;140043;-64
2022/09/01 20:27:05;;;;;;;3.00;1.70;;;;;;;13.89;69.92;100445.91;213157;1278;140157;-62
2022/09/01 20:32:17;;;;;;;1.20;1.10;;;;;;;13.92;69.75;100447.09;213648;1277;141952;-62
2022/09/01 20:37:29;;;;;;;1.90;1.20;;;;;;;13.88;70.00;100450.75;213055;1276;141122;-64
2022/09/01 20:42:47;;;;;;;1.40;1.20;;;;;;;13.87;70.11;100450.65;212934;1276;140371;-63
2022/09/01 20:48:05;;;;;;;2.20;0.90;;;;;;;13.85;70.23;100454.67;213247;1277;140359;-63
2022/09/01 20:53:14;;;;;;;1.10;0.90;;;;;;;13.75;70.36;100459.21;213302;1276;141809;-65
2022/09/01 20:58:30;;;;;;;1.60;1.20;;;;;;;13.67;70.56;100463.66;213053;1276;140523;-64
2022/09/01 21:03:58;;;;;;;5.20;1.80;;;;;;;13.56;70.74;100465.93;213471;1276;141691;-63
2022/09/01 21:09:14;;;;;;;1.20;1.10;;;;;;;13.51;71.20;100466.63;214636;1277;222996;-64
2022/09/01 21:14:39;;;;;;;4.00;1.80;;;;;;;13.53;71.30;100469.73;213373;1277;140259;-65
2022/09/01 21:19:51;;;;;;;4.40;1.50;;;;;;;13.46;71.43;100472.34;214372;1277;139872;-67
2022/09/01 21:24:54;;;;;;;2.50;1.30;;;;;;;13.41;71.67;100475.45;213471;1277;140299;-63
2022/09/01 21:30:05;;;;;;;1.20;1.10;;;;;;;13.34;71.80;100476.57;213388;1276;140946;-65
2022/09/01 21:35:12;;;;;;;5.20;1.20;;;;;;;13.27;72.04;100476.77;214663;1278;139532;-66
2022/09/01 21:40:17;;;;;;;1.80;1.30;;;;;;;13.29;72.28;100477.95;214375;1276;141881;-63
2022/09/01 21:45:21;;;;;;;1.30;1.20;;;;;;;13.37;72.22;100478.58;215238;1278;139827;-65
2022/09/01 21:50:24;;;;;;;3.30;1.80;;;;;;;13.43;72.37;100476.13;215307;1276;139611;-65
2022/09/01 21:55:31;;;;;;;2.80;2.10;;;;;;;13.42;72.21;100478.95;214776;1276;140154;-65
2022/09/01 22:00:38;;;;;;;3.00;1.60;;;;;;;13.35;71.96;100482.05;214004;1276;141315;-66
2022/09/01 22:05:43;;;;;;;3.30;1.50;;;;;;;13.29;72.22;100484.04;214979;1277;140018;-66
2022/09/01 22:10:50;;;;;;;3.90;1.90;;;;;;;13.32;72.49;100483.11;212889;1277;140206;-63
2022/09/01 22:15:53;;;;;;;2.00;1.60;;;;;;;13.36;72.73;100479.62;213481;1276;140986;-65
2022/09/01 22:21:08;;;;;;;1.90;1.60;;;;;;;13.37;72.66;100480.92;213626;1276;141236;-64
2022/09/01 22:26:22;;;;;;;5.30;1.60;;;;;;;13.38;72.47;100475.85;213353;1278;141968;-64
2022/09/01 22:31:26;;;;;;;2.50;1.60;;;;;;;13.35;72.65;100471.77;213780;1276;139733;-63
2022/09/01 22:36:39;;;;;;;3.40;2.30;;;;;;;13.27;72.54;100473.40;213928;1276;140041;-65
2022/09/01 22:41:42;;;;;;;1.90;1.50;;;;;;;13.22;72.72;100474.73;214598;1276;141012;-65
2022/09/01 22:46:44;;;;;;;2.80;2.10;;;;;;;13.20;72.97;100475.55;213107;1276;139520;-65
2022/09/01 22:51:47;;;;;;;3.20;1.90;;;;;;;13.23;73.04;100475.40;212918;1277;142075;-63
2022/09/01 22:56:51;;;;;;;5.90;2.60;;;;;;;13.26;72.90;100474.95;213411;1276;140730;-65
2022/09/01 23:01:55;;;;;;;1.90;1.80;;;;;;;13.26;73.22;100473.17;213210;1276;139350;-63
2022/09/01 23:06:58;;;;;;;4.40;2.80;;;;;;;13.24;73.13;100469.63;213241;1276;140849;-64
2022/09/01 23:12:01;;;;;;;7.70;2.50;;;;;;;13.25;73.11;100468.20;213419;1276;141134;-63
2022/09/01 23:17:04;;;;;;;4.30;1.70;;;;;;;13.28;73.22;100464.11;213070;1277;142329;-62
2022/09/01 23:22:07;;;;;;;3.10;1.80;;;;;;;13.31;73.13;100460.70;215173;1276;140078;-62
2022/09/01 23:27:09;;;;;;;2.00;1.60;;;;;;;13.33;73.04;100458.92;215595;1276;139681;-63
2022/09/01 23:32:12;;;;;;;1.20;1.10;;;;;;;13.32;72.90;100459.31;215405;1276;139529;-62
2022/09/01 23:37:14;;;;;;;2.10;1.60;;;;;;;13.35;72.60;100457.36;214627;1276;141316;-63